sensor_id;sensor_type;location;lat;lon;timestamp;P1;durP1;ratioP1;P2;durP2;ratioP2
42670;SDS011;28283;55.426;37.756;2023-07-29T00:03:50;3.70;;;2.30;;
42670;SDS011;28283;55.426;37.756;2023-07-29T00:08:50;3.47;;;2.60;;
42670;SDS011;28283;55.426;37.756;2023-07-29T00:13:51;2.75;;;2.55;;
42670;SDS011;28283;55.426;37.756;2023-07-29T00:18:53;4.35;;;2.13;;
42670;SDS011;28283;55.426;37.756;2023-07-29T00:23:53;6.45;;;3.97;;
42670;SDS011;28283;55.426;37.756;2023-07-29T00:28:57;3.85;;;3.20;;
42670;SDS011;28283;55.426;37.756;2023-07-29T00:33:58;4.90;;;3.47;;
42670;SDS011;28283;55.426;37.756;2023-07-29T00:38:59;4.07;;;2.95;;
42670;SDS011;28283;55.426;37.756;2023-07-29T00:43:59;4.70;;;3.72;;
42670;SDS011;28283;55.426;37.756;2023-07-29T00:49:00;5.88;;;4.63;;
42670;SDS011;28283;55.426;37.756;2023-07-29T00:54:01;4.10;;;3.50;;
42670;SDS011;28283;55.426;37.756;2023-07-29T00:59:02;4.03;;;3.72;;
42670;SDS011;28283;55.426;37.756;2023-07-29T01:04:04;5.43;;;3.40;;
42670;SDS011;28283;55.426;37.756;2023-07-29T01:09:06;3.28;;;2.97;;
42670;SDS011;28283;55.426;37.756;2023-07-29T01:14:32;3.83;;;3.53;;
42670;SDS011;28283;55.426;37.756;2023-07-29T01:19:43;3.05;;;2.85;;
42670;SDS011;28283;55.426;37.756;2023-07-29T01:24:49;2.38;;;2.20;;
42670;SDS011;28283;55.426;37.756;2023-07-29T01:29:50;2.72;;;2.33;;
42670;SDS011;28283;55.426;37.756;2023-07-29T01:34:56;6.78;;;2.72;;
42670;SDS011;28283;55.426;37.756;2023-07-29T01:40:05;3.03;;;2.50;;
42670;SDS011;28283;55.426;37.756;2023-07-29T01:45:08;4.97;;;2.47;;
42670;SDS011;28283;55.426;37.756;2023-07-29T01:50:09;2.50;;;2.20;;
42670;SDS011;28283;55.426;37.756;2023-07-29T01:55:10;2.10;;;2.00;;
42670;SDS011;28283;55.426;37.756;2023-07-29T02:00:11;4.72;;;2.15;;
42670;SDS011;28283;55.426;37.756;2023-07-29T02:05:12;3.03;;;2.53;;
42670;SDS011;28283;55.426;37.756;2023-07-29T02:10:12;2.53;;;2.33;;
42670;SDS011;28283;55.426;37.756;2023-07-29T02:15:13;2.58;;;2.38;;
42670;SDS011;28283;55.426;37.756;2023-07-29T02:20:14;2.60;;;2.15;;
42670;SDS011;28283;55.426;37.756;2023-07-29T02:25:15;9.35;;;2.92;;
42670;SDS011;28283;55.426;37.756;2023-07-29T02:30:15;2.90;;;2.58;;
42670;SDS011;28283;55.426;37.756;2023-07-29T02:35:16;3.80;;;2.90;;
42670;SDS011;28283;55.426;37.756;2023-07-29T02:40:17;3.20;;;2.65;;
42670;SDS011;28283;55.426;37.756;2023-07-29T02:45:17;3.10;;;2.90;;
42670;SDS011;28283;55.426;37.756;2023-07-29T02:50:18;2.60;;;2.40;;
42670;SDS011;28283;55.426;37.756;2023-07-29T02:55:19;3.10;;;2.88;;
42670;SDS011;28283;55.426;37.756;2023-07-29T03:00:19;2.92;;;2.58;;
42670;SDS011;28283;55.426;37.756;2023-07-29T03:05:20;2.75;;;2.55;;
42670;SDS011;28283;55.426;37.756;2023-07-29T03:10:21;2.67;;;2.47;;
42670;SDS011;28283;55.426;37.756;2023-07-29T03:20:26;3.38;;;2.80;;
42670;SDS011;28283;55.426;37.756;2023-07-29T03:25:26;3.53;;;3.22;;
42670;SDS011;28283;55.426;37.756;2023-07-29T03:30:28;3.08;;;2.83;;
42670;SDS011;28283;55.426;37.756;2023-07-29T03:35:29;3.63;;;3.30;;
42670;SDS011;28283;55.426;37.756;2023-07-29T03:40:30;7.15;;;3.22;;
42670;SDS011;28283;55.426;37.756;2023-07-29T03:45:31;3.85;;;3.35;;
42670;SDS011;28283;55.426;37.756;2023-07-29T03:55:33;5.00;;;3.58;;
42670;SDS011;28283;55.426;37.756;2023-07-29T04:00:34;5.53;;;3.83;;
42670;SDS011;28283;55.426;37.756;2023-07-29T04:05:35;6.88;;;4.18;;
42670;SDS011;28283;55.426;37.756;2023-07-29T04:10:36;5.00;;;4.30;;
42670;SDS011;28283;55.426;37.756;2023-07-29T04:15:40;4.13;;;3.88;;
42670;SDS011;28283;55.426;37.756;2023-07-29T04:20:49;4.32;;;4.03;;
42670;SDS011;28283;55.426;37.756;2023-07-29T04:25:50;5.05;;;3.35;;
42670;SDS011;28283;55.426;37.756;2023-07-29T04:30:51;4.63;;;3.45;;
42670;SDS011;28283;55.426;37.756;2023-07-29T04:35:52;6.50;;;3.10;;
42670;SDS011;28283;55.426;37.756;2023-07-29T04:40:53;2.72;;;2.53;;
42670;SDS011;28283;55.426;37.756;2023-07-29T04:45:54;2.23;;;2.13;;
42670;SDS011;28283;55.426;37.756;2023-07-29T04:50:54;3.85;;;2.70;;
42670;SDS011;28283;55.426;37.756;2023-07-29T04:55:55;4.50;;;2.90;;
42670;SDS011;28283;55.426;37.756;2023-07-29T05:00:55;4.03;;;2.72;;
42670;SDS011;28283;55.426;37.756;2023-07-29T05:05:57;2.78;;;2.25;;
42670;SDS011;28283;55.426;37.756;2023-07-29T05:10:59;2.38;;;2.03;;
42670;SDS011;28283;55.426;37.756;2023-07-29T05:16:00;4.95;;;2.13;;
42670;SDS011;28283;55.426;37.756;2023-07-29T05:21:00;2.47;;;2.30;;
42670;SDS011;28283;55.426;37.756;2023-07-29T05:26:01;5.60;;;2.38;;
42670;SDS011;28283;55.426;37.756;2023-07-29T05:31:02;1.98;;;1.88;;
42670;SDS011;28283;55.426;37.756;2023-07-29T05:36:03;3.47;;;2.67;;
42670;SDS011;28283;55.426;37.756;2023-07-29T05:41:03;1.98;;;1.23;;
42670;SDS011;28283;55.426;37.756;2023-07-29T05:46:04;4.18;;;2.33;;
42670;SDS011;28283;55.426;37.756;2023-07-29T05:51:05;2.92;;;1.20;;
42670;SDS011;28283;55.426;37.756;2023-07-29T05:56:05;3.80;;;2.47;;
42670;SDS011;28283;55.426;37.756;2023-07-29T06:01:06;3.05;;;2.50;;
42670;SDS011;28283;55.426;37.756;2023-07-29T06:06:08;2.75;;;2.55;;
42670;SDS011;28283;55.426;37.756;2023-07-29T06:11:09;2.35;;;2.15;;
42670;SDS011;28283;55.426;37.756;2023-07-29T06:16:09;4.55;;;2.08;;
42670;SDS011;28283;55.426;37.756;2023-07-29T06:21:10;4.05;;;2.67;;
42670;SDS011;28283;55.426;37.756;2023-07-29T06:26:16;6.57;;;2.10;;
42670;SDS011;28283;55.426;37.756;2023-07-29T06:31:17;3.70;;;2.45;;
42670;SDS011;28283;55.426;37.756;2023-07-29T06:36:18;3.38;;;2.80;;
42670;SDS011;28283;55.426;37.756;2023-07-29T06:41:18;4.40;;;2.97;;
42670;SDS011;28283;55.426;37.756;2023-07-29T06:46:19;3.53;;;3.22;;
42670;SDS011;28283;55.426;37.756;2023-07-29T06:51:19;2.00;;;1.88;;
42670;SDS011;28283;55.426;37.756;2023-07-29T06:56:20;2.03;;;1.92;;
42670;SDS011;28283;55.426;37.756;2023-07-29T07:01:21;1.70;;;1.60;;
42670;SDS011;28283;55.426;37.756;2023-07-29T07:06:21;5.30;;;3.33;;
42670;SDS011;28283;55.426;37.756;2023-07-29T07:11:24;4.00;;;2.85;;
42670;SDS011;28283;55.426;37.756;2023-07-29T07:16:25;3.53;;;2.90;;
42670;SDS011;28283;55.426;37.756;2023-07-29T07:21:26;2.75;;;2.55;;
42670;SDS011;28283;55.426;37.756;2023-07-29T07:26:26;2.67;;;2.47;;
42670;SDS011;28283;55.426;37.756;2023-07-29T07:31:27;2.20;;;1.05;;
42670;SDS011;28283;55.426;37.756;2023-07-29T07:36:28;4.68;;;2.92;;
42670;SDS011;28283;55.426;37.756;2023-07-29T07:41:29;3.83;;;3.53;;
42670;SDS011;28283;55.426;37.756;2023-07-29T07:46:29;3.22;;;2.90;;
42670;SDS011;28283;55.426;37.756;2023-07-29T07:51:30;3.95;;;3.10;;
42670;SDS011;28283;55.426;37.756;2023-07-29T07:56:31;3.87;;;2.93;;
42670;SDS011;28283;55.426;37.756;2023-07-29T08:01:38;6.40;;;2.95;;
42670;SDS011;28283;55.426;37.756;2023-07-29T08:06:39;4.40;;;3.08;;
42670;SDS011;28283;55.426;37.756;2023-07-29T08:11:40;3.90;;;2.50;;
42670;SDS011;28283;55.426;37.756;2023-07-29T08:16:40;3.15;;;2.83;;
42670;SDS011;28283;55.426;37.756;2023-07-29T08:21:41;1.98;;;1.42;;
42670;SDS011;28283;55.426;37.756;2023-07-29T08:26:42;4.00;;;1.95;;
42670;SDS011;28283;55.426;37.756;2023-07-29T08:31:42;4.72;;;1.70;;
42670;SDS011;28283;55.426;37.756;2023-07-29T08:36:43;7.57;;;3.85;;
42670;SDS011;28283;55.426;37.756;2023-07-29T08:41:57;5.40;;;2.75;;
42670;SDS011;28283;55.426;37.756;2023-07-29T08:47:05;5.10;;;4.30;;
42670;SDS011;28283;55.426;37.756;2023-07-29T08:52:07;4.55;;;4.13;;
42670;SDS011;28283;55.426;37.756;2023-07-29T08:57:09;4.72;;;4.22;;
42670;SDS011;28283;55.426;37.756;2023-07-29T09:02:10;6.70;;;4.45;;
42670;SDS011;28283;55.426;37.756;2023-07-29T09:07:11;7.35;;;6.60;;
42670;SDS011;28283;55.426;37.756;2023-07-29T09:12:12;7.80;;;5.30;;
42670;SDS011;28283;55.426;37.756;2023-07-29T09:17:13;4.50;;;3.47;;
42670;SDS011;28283;55.426;37.756;2023-07-29T09:27:27;5.35;;;4.85;;
42670;SDS011;28283;55.426;37.756;2023-07-29T09:32:30;4.45;;;4.05;;
42670;SDS011;28283;55.426;37.756;2023-07-29T09:37:33;3.90;;;3.55;;
42670;SDS011;28283;55.426;37.756;2023-07-29T09:42:34;3.13;;;2.83;;
42670;SDS011;28283;55.426;37.756;2023-07-29T09:47:35;3.63;;;3.33;;
42670;SDS011;28283;55.426;37.756;2023-07-29T09:52:35;3.03;;;2.83;;
42670;SDS011;28283;55.426;37.756;2023-07-29T09:57:36;4.65;;;3.08;;
42670;SDS011;28283;55.426;37.756;2023-07-29T10:02:39;4.93;;;2.63;;
42670;SDS011;28283;55.426;37.756;2023-07-29T10:07:41;4.13;;;3.03;;
42670;SDS011;28283;55.426;37.756;2023-07-29T10:12:41;2.17;;;2.08;;
42670;SDS011;28283;55.426;37.756;2023-07-29T10:22:43;2.50;;;2.30;;
42670;SDS011;28283;55.426;37.756;2023-07-29T10:27:52;3.40;;;2.72;;
42670;SDS011;28283;55.426;37.756;2023-07-29T10:32:56;6.38;;;4.13;;
42670;SDS011;28283;55.426;37.756;2023-07-29T10:37:59;5.35;;;3.97;;
42670;SDS011;28283;55.426;37.756;2023-07-29T10:43:02;3.30;;;2.35;;
42670;SDS011;28283;55.426;37.756;2023-07-29T10:48:12;4.13;;;3.72;;
42670;SDS011;28283;55.426;37.756;2023-07-29T10:53:33;4.45;;;4.03;;
42670;SDS011;28283;55.426;37.756;2023-07-29T10:58:34;11.85;;;2.75;;
42670;SDS011;28283;55.426;37.756;2023-07-29T11:03:34;2.85;;;2.55;;
42670;SDS011;28283;55.426;37.756;2023-07-29T11:08:35;5.47;;;4.93;;
42670;SDS011;28283;55.426;37.756;2023-07-29T11:13:36;3.97;;;3.55;;
42670;SDS011;28283;55.426;37.756;2023-07-29T11:18:37;4.30;;;3.63;;
42670;SDS011;28283;55.426;37.756;2023-07-29T11:23:39;4.38;;;3.97;;
42670;SDS011;28283;55.426;37.756;2023-07-29T11:28:40;4.85;;;4.25;;
42670;SDS011;28283;55.426;37.756;2023-07-29T11:33:41;5.15;;;3.88;;
42670;SDS011;28283;55.426;37.756;2023-07-29T11:38:41;4.95;;;4.35;;
42670;SDS011;28283;55.426;37.756;2023-07-29T11:43:43;5.60;;;5.05;;
42670;SDS011;28283;55.426;37.756;2023-07-29T11:48:44;5.72;;;5.00;;
42670;SDS011;28283;55.426;37.756;2023-07-29T11:53:45;6.20;;;5.07;;
42670;SDS011;28283;55.426;37.756;2023-07-29T11:58:45;9.68;;;6.35;;
42670;SDS011;28283;55.426;37.756;2023-07-29T12:03:46;10.43;;;4.63;;
42670;SDS011;28283;55.426;37.756;2023-07-29T12:08:47;10.68;;;5.00;;
42670;SDS011;28283;55.426;37.756;2023-07-29T12:13:48;4.95;;;4.18;;
42670;SDS011;28283;55.426;37.756;2023-07-29T12:18:50;6.20;;;5.30;;
42670;SDS011;28283;55.426;37.756;2023-07-29T12:23:51;5.65;;;5.07;;
42670;SDS011;28283;55.426;37.756;2023-07-29T12:28:51;6.60;;;3.72;;
42670;SDS011;28283;55.426;37.756;2023-07-29T12:33:55;5.55;;;3.90;;
42670;SDS011;28283;55.426;37.756;2023-07-29T12:38:59;4.72;;;4.32;;
42670;SDS011;28283;55.426;37.756;2023-07-29T12:43:59;7.03;;;4.25;;
42670;SDS011;28283;55.426;37.756;2023-07-29T12:49:00;5.20;;;4.68;;
42670;SDS011;28283;55.426;37.756;2023-07-29T12:54:00;5.18;;;4.20;;
42670;SDS011;28283;55.426;37.756;2023-07-29T12:59:02;4.18;;;3.70;;
42670;SDS011;28283;55.426;37.756;2023-07-29T13:04:03;4.78;;;4.28;;
42670;SDS011;28283;55.426;37.756;2023-07-29T13:09:04;5.22;;;4.35;;
42670;SDS011;28283;55.426;37.756;2023-07-29T13:19:06;5.28;;;4.55;;
42670;SDS011;28283;55.426;37.756;2023-07-29T13:24:06;7.30;;;5.80;;
42670;SDS011;28283;55.426;37.756;2023-07-29T13:29:07;8.85;;;5.82;;
42670;SDS011;28283;55.426;37.756;2023-07-29T13:34:08;8.60;;;6.20;;
42670;SDS011;28283;55.426;37.756;2023-07-29T13:39:08;10.05;;;7.07;;
42670;SDS011;28283;55.426;37.756;2023-07-29T13:44:09;10.13;;;6.23;;
42670;SDS011;28283;55.426;37.756;2023-07-29T13:49:10;11.48;;;6.00;;
42670;SDS011;28283;55.426;37.756;2023-07-29T13:54:11;7.53;;;5.40;;
42670;SDS011;28283;55.426;37.756;2023-07-29T13:59:12;7.78;;;5.28;;
42670;SDS011;28283;55.426;37.756;2023-07-29T14:04:12;7.90;;;5.50;;
42670;SDS011;28283;55.426;37.756;2023-07-29T14:09:13;7.00;;;5.78;;
42670;SDS011;28283;55.426;37.756;2023-07-29T14:14:14;8.88;;;7.75;;
42670;SDS011;28283;55.426;37.756;2023-07-29T14:19:15;8.80;;;7.28;;
42670;SDS011;28283;55.426;37.756;2023-07-29T14:24:15;8.48;;;6.28;;
42670;SDS011;28283;55.426;37.756;2023-07-29T14:29:16;9.90;;;6.38;;
42670;SDS011;28283;55.426;37.756;2023-07-29T14:34:17;7.80;;;6.68;;
42670;SDS011;28283;55.426;37.756;2023-07-29T14:39:18;10.52;;;6.32;;
42670;SDS011;28283;55.426;37.756;2023-07-29T14:44:18;8.00;;;4.38;;
42670;SDS011;28283;55.426;37.756;2023-07-29T14:49:19;7.93;;;5.53;;
42670;SDS011;28283;55.426;37.756;2023-07-29T14:54:19;9.23;;;5.32;;
42670;SDS011;28283;55.426;37.756;2023-07-29T14:59:20;6.55;;;3.33;;
42670;SDS011;28283;55.426;37.756;2023-07-29T15:04:21;7.70;;;4.72;;
42670;SDS011;28283;55.426;37.756;2023-07-29T15:14:22;10.50;;;5.27;;
42670;SDS011;28283;55.426;37.756;2023-07-29T15:24:23;5.30;;;4.27;;
42670;SDS011;28283;55.426;37.756;2023-07-29T15:34:24;5.37;;;3.57;;
42670;SDS011;28283;55.426;37.756;2023-07-29T15:39:25;4.40;;;3.22;;
42670;SDS011;28283;55.426;37.756;2023-07-29T15:44:27;10.30;;;4.15;;
42670;SDS011;28283;55.426;37.756;2023-07-29T15:49:28;3.75;;;2.42;;
42670;SDS011;28283;55.426;37.756;2023-07-29T15:54:29;5.10;;;3.03;;
42670;SDS011;28283;55.426;37.756;2023-07-29T15:59:29;4.95;;;2.38;;
42670;SDS011;28283;55.426;37.756;2023-07-29T16:04:30;4.07;;;2.83;;
42670;SDS011;28283;55.426;37.756;2023-07-29T16:09:31;4.70;;;4.07;;
42670;SDS011;28283;55.426;37.756;2023-07-29T16:19:32;3.28;;;2.85;;
42670;SDS011;28283;55.426;37.756;2023-07-29T16:29:33;5.75;;;3.03;;
42670;SDS011;28283;55.426;37.756;2023-07-29T16:34:34;14.02;;;4.43;;
42670;SDS011;28283;55.426;37.756;2023-07-29T16:44:35;5.25;;;3.65;;
42670;SDS011;28283;55.426;37.756;2023-07-29T16:49:36;12.27;;;4.25;;
42670;SDS011;28283;55.426;37.756;2023-07-29T16:54:37;6.95;;;4.38;;
42670;SDS011;28283;55.426;37.756;2023-07-29T16:59:38;7.18;;;3.72;;
42670;SDS011;28283;55.426;37.756;2023-07-29T17:04:39;10.30;;;5.88;;
42670;SDS011;28283;55.426;37.756;2023-07-29T17:09:39;8.13;;;6.18;;
42670;SDS011;28283;55.426;37.756;2023-07-29T17:14:40;11.52;;;6.05;;
42670;SDS011;28283;55.426;37.756;2023-07-29T17:24:41;8.95;;;5.13;;
42670;SDS011;28283;55.426;37.756;2023-07-29T17:34:43;9.45;;;6.60;;
42670;SDS011;28283;55.426;37.756;2023-07-29T17:44:44;6.80;;;3.73;;
42670;SDS011;28283;55.426;37.756;2023-07-29T17:49:44;6.13;;;4.47;;
42670;SDS011;28283;55.426;37.756;2023-07-29T17:54:45;6.90;;;4.57;;
42670;SDS011;28283;55.426;37.756;2023-07-29T17:59:45;6.75;;;4.13;;
42670;SDS011;28283;55.426;37.756;2023-07-29T18:04:46;8.93;;;5.32;;
42670;SDS011;28283;55.426;37.756;2023-07-29T18:09:47;7.68;;;4.75;;
42670;SDS011;28283;55.426;37.756;2023-07-29T18:14:47;9.63;;;4.20;;
42670;SDS011;28283;55.426;37.756;2023-07-29T18:19:48;7.28;;;4.40;;
42670;SDS011;28283;55.426;37.756;2023-07-29T18:24:49;6.63;;;4.30;;
42670;SDS011;28283;55.426;37.756;2023-07-29T18:29:49;10.40;;;5.47;;
42670;SDS011;28283;55.426;37.756;2023-07-29T18:34:50;7.43;;;5.15;;
42670;SDS011;28283;55.426;37.756;2023-07-29T18:39:51;7.10;;;5.32;;
42670;SDS011;28283;55.426;37.756;2023-07-29T18:44:51;10.87;;;6.30;;
42670;SDS011;28283;55.426;37.756;2023-07-29T18:49:52;11.30;;;7.10;;
42670;SDS011;28283;55.426;37.756;2023-07-29T18:54:53;9.63;;;6.55;;
42670;SDS011;28283;55.426;37.756;2023-07-29T18:59:55;11.45;;;6.75;;
42670;SDS011;28283;55.426;37.756;2023-07-29T19:04:57;14.45;;;7.40;;
42670;SDS011;28283;55.426;37.756;2023-07-29T19:09:57;16.48;;;7.90;;
42670;SDS011;28283;55.426;37.756;2023-07-29T19:14:58;12.65;;;9.40;;
42670;SDS011;28283;55.426;37.756;2023-07-29T19:19:59;16.15;;;8.48;;
42670;SDS011;28283;55.426;37.756;2023-07-29T19:25:00;8.98;;;6.57;;
42670;SDS011;28283;55.426;37.756;2023-07-29T19:30:00;8.50;;;6.82;;
42670;SDS011;28283;55.426;37.756;2023-07-29T19:35:01;7.70;;;5.63;;
42670;SDS011;28283;55.426;37.756;2023-07-29T19:40:02;9.13;;;6.18;;
42670;SDS011;28283;55.426;37.756;2023-07-29T19:45:04;15.35;;;10.18;;
42670;SDS011;28283;55.426;37.756;2023-07-29T19:50:05;18.75;;;9.45;;
42670;SDS011;28283;55.426;37.756;2023-07-29T19:55:06;16.63;;;10.52;;
42670;SDS011;28283;55.426;37.756;2023-07-29T20:00:07;13.95;;;10.80;;
42670;SDS011;28283;55.426;37.756;2023-07-29T20:05:08;9.85;;;7.55;;
42670;SDS011;28283;55.426;37.756;2023-07-29T20:10:09;13.07;;;10.50;;
42670;SDS011;28283;55.426;37.756;2023-07-29T20:15:10;15.75;;;9.10;;
42670;SDS011;28283;55.426;37.756;2023-07-29T20:20:10;11.25;;;8.43;;
42670;SDS011;28283;55.426;37.756;2023-07-29T20:25:11;13.18;;;9.32;;
42670;SDS011;28283;55.426;37.756;2023-07-29T20:30:12;22.15;;;8.88;;
42670;SDS011;28283;55.426;37.756;2023-07-29T20:35:13;10.32;;;8.38;;
42670;SDS011;28283;55.426;37.756;2023-07-29T20:40:14;12.98;;;7.45;;
42670;SDS011;28283;55.426;37.756;2023-07-29T20:45:14;15.68;;;8.07;;
42670;SDS011;28283;55.426;37.756;2023-07-29T20:50:15;13.43;;;8.38;;
42670;SDS011;28283;55.426;37.756;2023-07-29T20:55:15;16.20;;;8.40;;
42670;SDS011;28283;55.426;37.756;2023-07-29T21:00:16;17.17;;;8.85;;
42670;SDS011;28283;55.426;37.756;2023-07-29T21:05:17;18.33;;;11.93;;
42670;SDS011;28283;55.426;37.756;2023-07-29T21:15:18;22.10;;;9.23;;
42670;SDS011;28283;55.426;37.756;2023-07-29T21:20:19;28.07;;;20.57;;
42670;SDS011;28283;55.426;37.756;2023-07-29T21:25:20;17.48;;;14.90;;
42670;SDS011;28283;55.426;37.756;2023-07-29T21:30:21;19.30;;;14.57;;
42670;SDS011;28283;55.426;37.756;2023-07-29T21:35:21;16.95;;;13.10;;
42670;SDS011;28283;55.426;37.756;2023-07-29T21:40:25;18.70;;;11.85;;
42670;SDS011;28283;55.426;37.756;2023-07-29T21:45:26;17.55;;;12.02;;
42670;SDS011;28283;55.426;37.756;2023-07-29T21:50:27;21.52;;;11.10;;
42670;SDS011;28283;55.426;37.756;2023-07-29T21:55:27;22.60;;;19.40;;
42670;SDS011;28283;55.426;37.756;2023-07-29T22:00:28;14.47;;;9.53;;
42670;SDS011;28283;55.426;37.756;2023-07-29T22:05:28;16.80;;;9.50;;
42670;SDS011;28283;55.426;37.756;2023-07-29T22:10:32;13.05;;;8.23;;
42670;SDS011;28283;55.426;37.756;2023-07-29T22:15:36;17.27;;;10.48;;
42670;SDS011;28283;55.426;37.756;2023-07-29T22:20:37;35.80;;;15.80;;
42670;SDS011;28283;55.426;37.756;2023-07-29T22:25:37;17.97;;;10.53;;
42670;SDS011;28283;55.426;37.756;2023-07-29T22:30:38;18.10;;;8.80;;
42670;SDS011;28283;55.426;37.756;2023-07-29T22:35:39;22.45;;;10.27;;
42670;SDS011;28283;55.426;37.756;2023-07-29T22:40:40;28.25;;;19.75;;
42670;SDS011;28283;55.426;37.756;2023-07-29T22:45:41;30.30;;;21.60;;
42670;SDS011;28283;55.426;37.756;2023-07-29T22:50:49;24.90;;;17.15;;
42670;SDS011;28283;55.426;37.756;2023-07-29T22:55:50;22.20;;;19.08;;
42670;SDS011;28283;55.426;37.756;2023-07-29T23:00:52;18.98;;;11.68;;
42670;SDS011;28283;55.426;37.756;2023-07-29T23:05:53;15.15;;;10.05;;
42670;SDS011;28283;55.426;37.756;2023-07-29T23:16:00;23.35;;;18.85;;
42670;SDS011;28283;55.426;37.756;2023-07-29T23:21:01;30.67;;;25.25;;
42670;SDS011;28283;55.426;37.756;2023-07-29T23:26:02;24.15;;;21.27;;
42670;SDS011;28283;55.426;37.756;2023-07-29T23:31:02;22.63;;;16.75;;
42670;SDS011;28283;55.426;37.756;2023-07-29T23:36:05;18.10;;;12.35;;
42670;SDS011;28283;55.426;37.756;2023-07-29T23:41:06;19.08;;;11.75;;
42670;SDS011;28283;55.426;37.756;2023-07-29T23:46:06;16.17;;;9.48;;
42670;SDS011;28283;55.426;37.756;2023-07-29T23:51:07;13.60;;;8.63;;
42670;SDS011;28283;55.426;37.756;2023-07-29T23:56:07;11.85;;;8.13;;
